Time;durP1;ratioP1;P1;durP2;ratioP2;P2;SDS_P1;SDS_P2;PMS_P1;PMS_P2;Temp;Humidity;BMP_temperature;BMP_pressure;BME280_temperature;BME280_humidity;BME280_pressure;Samples;Min_cycle;Max_cycle;Signal;HPM_P1;HPM_P2
2022/05/02 00:01:37;;;;;;;2.65;2.33;;;;;;;10.15;40.53;100028.23;1758812;80;21163;-75
2022/05/02 00:04:04;;;;;;;2.60;2.40;;;;;;;10.15;40.62;100023.83;1755741;81;21076;-75
2022/05/02 00:06:32;;;;;;;3.30;2.12;;;;;;;10.14;40.59;100019.96;1736091;82;21120;-75
2022/05/02 00:08:59;;;;;;;2.47;2.08;;;;;;;10.13;40.81;100022.16;1735854;82;21037;-75
2022/05/02 00:11:26;;;;;;;5.03;2.65;;;;;;;10.12;40.72;100016.48;1735923;82;20982;-75
2022/05/02 00:13:52;;;;;;;2.95;2.50;;;;;;;10.10;40.81;100019.60;1736288;82;21525;-75
2022/05/02 00:16:20;;;;;;;3.85;2.08;;;;;;;10.07;41.00;100018.36;1736204;82;21145;-75
2022/05/02 00:18:47;;;;;;;4.45;2.20;;;;;;;10.03;40.96;100021.05;1736383;82;21030;-74
2022/05/02 00:21:13;;;;;;;3.17;2.17;;;;;;;9.99;41.02;100020.73;1736069;82;21086;-74
2022/05/02 00:23:40;;;;;;;2.50;2.20;;;;;;;9.96;41.12;100020.80;1736115;82;21110;-74
2022/05/02 00:26:07;;;;;;;6.58;2.42;;;;;;;9.93;41.27;100014.75;1736224;82;21132;-75
2022/05/02 00:28:35;;;;;;;2.83;2.08;;;;;;;9.88;41.47;100016.17;1717402;82;21067;-75
2022/05/02 00:31:01;;;;;;;6.35;2.08;;;;;;;9.85;41.49;100020.18;1736118;82;21149;-76
2022/05/02 00:33:28;;;;;;;2.60;2.40;;;;;;;9.83;41.66;100014.11;1749707;81;21058;-76
2022/05/02 00:35:54;;;;;;;2.22;2.08;;;;;;;9.80;41.63;100011.11;1724203;83;21018;-76
2022/05/02 00:38:21;;;;;;;2.40;2.20;;;;;;;9.77;41.68;100009.02;1724107;83;21155;-76
2022/05/02 00:40:47;;;;;;;2.47;2.25;;;;;;;9.73;41.84;100014.77;1723940;83;20995;-75
2022/05/02 00:43:14;;;;;;;2.95;2.27;;;;;;;9.71;41.95;100014.40;1724313;83;21055;-75
2022/05/02 00:45:41;;;;;;;2.98;2.70;;;;;;;9.65;42.02;100018.05;1723813;83;21181;-75
2022/05/02 00:48:08;;;;;;;2.55;2.10;;;;;;;9.62;41.73;100009.77;1723841;83;21090;-76
2022/05/02 00:50:42;;;;;;;2.25;2.00;;;;;;;9.61;41.81;100013.28;1723902;83;21066;-75
2022/05/02 00:53:12;;;;;;;3.30;2.60;;;;;;;9.60;41.90;100010.26;1724177;83;21097;-75
2022/05/02 00:55:41;;;;;;;4.15;2.30;;;;;;;9.59;41.67;100011.61;1750440;82;21129;-76
2022/05/02 00:58:07;;;;;;;5.25;2.10;;;;;;;9.59;41.61;100009.83;1724113;83;21058;-76
2022/05/02 01:00:37;;;;;;;3.83;2.00;;;;;;;9.59;41.41;100007.66;1723827;83;21105;-76
2022/05/02 01:03:05;;;;;;;3.52;2.52;;;;;;;9.58;41.77;100009.44;1723769;83;21805;-75
2022/05/02 01:08:27;;;;;;;2.67;2.27;;;;;;;9.52;41.46;100000.83;1732260;82;21069;-75
2022/05/02 01:10:55;;;;;;;2.50;2.30;;;;;;;9.49;41.34;100001.29;1732195;82;21117;-75
2022/05/02 01:13:38;;;;;;;5.03;2.20;;;;;;;9.46;41.19;100002.70;1732355;82;20999;-75
2022/05/02 01:16:17;;;;;;;2.15;1.90;;;;;;;9.45;41.25;99998.79;1700046;83;21113;-75
2022/05/02 01:18:46;;;;;;;5.35;2.37;;;;;;;9.41;41.31;100000.59;1753711;81;21616;-75
2022/05/02 01:21:17;;;;;;;4.12;2.58;;;;;;;9.37;41.26;100000.26;1732527;82;21137;-75
2022/05/02 01:23:45;;;;;;;5.12;2.33;;;;;;;9.34;41.43;100005.57;1722277;83;21082;-75
2022/05/02 01:26:12;;;;;;;4.35;2.27;;;;;;;9.32;41.61;100005.20;1732508;82;21115;-76
2022/05/02 01:28:49;;;;;;;3.77;2.52;;;;;;;9.27;41.59;100004.84;1732375;82;21814;-75
2022/05/02 01:31:17;;;;;;;3.37;2.92;;;;;;;9.25;41.58;100000.53;1732299;82;22026;-74
2022/05/02 01:33:43;;;;;;;4.28;2.60;;;;;;;9.22;41.74;99998.82;1732265;82;21065;-74
2022/05/02 01:36:10;;;;;;;3.20;2.65;;;;;;;9.20;41.95;99995.83;1732478;82;21062;-74
2022/05/02 01:38:37;;;;;;;3.10;2.30;;;;;;;9.18;42.07;99996.28;1732302;82;21038;-74
2022/05/02 01:41:05;;;;;;;3.33;2.27;;;;;;;9.13;42.11;99991.16;1732319;82;21070;-74
2022/05/02 01:43:32;;;;;;;3.00;2.22;;;;;;;9.11;42.05;99992.92;1732237;82;21037;-74
2022/05/02 01:46:00;;;;;;;3.85;2.40;;;;;;;9.08;42.24;99987.31;1732395;82;21013;-73
2022/05/02 01:48:27;;;;;;;3.02;2.37;;;;;;;9.08;42.28;99995.64;1732292;82;21061;-74
2022/05/02 01:50:54;;;;;;;2.40;2.30;;;;;;;9.10;42.22;99988.59;1732275;82;21528;-74
2022/05/02 01:53:20;;;;;;;2.50;2.30;;;;;;;9.10;42.25;99987.28;1732158;82;21061;-73
2022/05/02 01:55:47;;;;;;;4.33;2.90;;;;;;;9.11;42.18;99988.98;1753628;81;21106;-74
2022/05/02 01:58:16;;;;;;;4.90;2.10;;;;;;;9.14;42.28;99988.93;1754161;81;21082;-75
2022/05/02 02:00:42;;;;;;;4.08;2.85;;;;;;;9.15;42.35;99991.98;1760009;80;21067;-75
2022/05/02 02:03:09;;;;;;;5.95;2.55;;;;;;;9.15;42.65;99986.73;1759961;81;21123;-75
2022/05/02 02:05:51;;;;;;;2.83;2.60;;;;;;;9.16;42.82;99988.44;1748048;81;21211;-75
2022/05/02 02:08:29;;;;;;;2.70;2.50;;;;;;;9.14;42.67;99995.49;1735755;82;21058;-75
2022/05/02 02:10:58;;;;;;;5.17;2.62;;;;;;;9.14;42.75;99993.33;1735754;82;21120;-75
2022/05/02 02:13:25;;;;;;;5.62;2.85;;;;;;;9.11;42.94;99990.30;1736280;82;21048;-75
2022/05/02 02:15:52;;;;;;;4.75;2.17;;;;;;;9.09;42.98;99992.10;1736011;82;21074;-75
2022/05/02 02:18:19;;;;;;;3.10;2.40;;;;;;;9.05;43.17;99999.64;1736173;82;21059;-75
2022/05/02 02:20:47;;;;;;;3.65;2.45;;;;;;;9.01;43.07;99992.70;1735862;82;21001;-74
2022/05/02 02:23:14;;;;;;;5.22;2.90;;;;;;;8.98;43.25;99991.02;1736011;82;21079;-75
2022/05/02 02:25:41;;;;;;;6.50;3.12;;;;;;;8.96;43.29;99991.94;1735914;82;21050;-75
2022/05/02 02:28:07;;;;;;;5.15;2.58;;;;;;;8.92;43.36;99989.83;1735924;82;21613;-74
2022/05/02 02:30:34;;;;;;;4.92;2.75;;;;;;;8.88;43.52;99995.59;1735897;82;21829;-75
2022/05/02 02:33:01;;;;;;;3.55;2.35;;;;;;;8.86;43.61;99992.56;1735704;82;21065;-75
2022/05/02 02:35:29;;;;;;;3.20;2.60;;;;;;;8.82;44.32;99991.77;1735939;82;21051;-74
2022/05/02 02:37:55;;;;;;;2.77;2.22;;;;;;;8.79;44.49;99990.50;1735889;82;21172;-76
2022/05/02 02:40:21;;;;;;;4.60;2.65;;;;;;;8.76;45.95;99993.22;1737045;81;21055;-75
2022/05/02 02:42:49;;;;;;;4.25;2.70;;;;;;;8.69;46.87;99985.03;1724815;82;21087;-74
2022/05/02 02:45:15;;;;;;;2.30;2.10;;;;;;;8.65;47.80;99991.23;1723896;83;21042;-75
2022/05/02 02:47:44;;;;;;;3.67;2.37;;;;;;;8.62;48.68;99991.29;1723949;83;21589;-75
2022/05/02 02:50:11;;;;;;;3.12;2.62;;;;;;;8.59;48.67;99988.72;1724062;83;20995;-75
2022/05/02 02:52:37;;;;;;;4.95;2.70;;;;;;;8.53;47.20;99991.88;1724204;83;21133;-75
2022/05/02 02:55:05;;;;;;;2.90;2.60;;;;;;;8.50;46.41;99991.93;1724066;83;21117;-75
2022/05/02 02:57:33;;;;;;;5.60;2.62;;;;;;;8.46;46.92;99994.20;1724233;83;21608;-75
2022/05/02 03:00:00;;;;;;;4.70;3.08;;;;;;;8.43;46.37;99992.09;1724216;83;21058;-75
2022/05/02 03:02:27;;;;;;;4.87;2.70;;;;;;;8.42;47.80;99997.73;1724144;83;20979;-75
2022/05/02 03:07:39;;;;;;;3.33;3.02;;;;;;;8.33;46.51;99994.83;1712332;83;21552;-75
2022/05/02 03:10:06;;;;;;;2.98;2.60;;;;;;;8.31;46.45;100004.94;1743710;82;21050;-75
2022/05/02 03:12:33;;;;;;;9.40;2.92;;;;;;;8.29;48.58;99998.87;1743711;82;22249;-75
2022/05/02 03:14:59;;;;;;;4.08;2.60;;;;;;;8.26;48.81;100001.53;1722899;83;21568;-76
2022/05/02 03:17:26;;;;;;;6.22;2.87;;;;;;;8.19;49.32;100005.56;1723158;82;21514;-75
2022/05/02 03:19:52;;;;;;;6.53;3.10;;;;;;;8.15;48.79;100012.19;1722679;83;21525;-75
2022/05/02 03:22:18;;;;;;;10.38;3.08;;;;;;;8.09;47.97;100007.92;1722864;82;21482;-76
2022/05/02 03:24:45;;;;;;;4.53;3.00;;;;;;;8.06;48.97;100007.11;1722878;82;21656;-75
2022/05/02 03:27:11;;;;;;;9.18;2.95;;;;;;;8.01;49.55;100009.80;1723017;82;21629;-75
2022/05/02 03:29:38;;;;;;;5.15;2.50;;;;;;;7.99;50.38;100007.20;1722819;83;21506;-75
2022/05/02 03:32:05;;;;;;;5.83;2.75;;;;;;;7.97;51.08;100008.98;1722633;83;21676;-74
2022/05/02 03:34:32;;;;;;;3.75;2.65;;;;;;;7.98;51.35;100011.16;1722851;83;20992;-75
2022/05/02 03:36:58;;;;;;;5.35;2.83;;;;;;;7.97;50.70;100015.99;1722746;83;21062;-75
2022/05/02 03:39:25;;;;;;;7.05;3.10;;;;;;;7.96;50.16;100013.80;1722920;83;21380;-75
2022/05/02 03:41:52;;;;;;;7.58;2.92;;;;;;;7.96;49.25;100016.41;1722762;83;21102;-75
2022/05/02 03:44:19;;;;;;;4.42;2.83;;;;;;;7.97;50.35;100017.30;1722965;83;21089;-76
2022/05/02 03:46:46;;;;;;;9.70;2.70;;;;;;;7.98;51.25;100020.33;1722277;83;21062;-75
2022/05/02 03:49:13;;;;;;;7.30;2.75;;;;;;;7.97;51.34;100018.61;1722813;83;20987;-76
2022/05/02 03:51:39;;;;;;;4.72;3.05;;;;;;;7.96;50.09;100019.49;1722839;83;21062;-75
2022/05/02 03:54:06;;;;;;;9.58;2.85;;;;;;;7.96;50.93;100020.80;1722645;82;21043;-75
2022/05/02 03:56:33;;;;;;;32.83;13.60;;;;;;;7.98;51.05;100018.59;1722533;83;21196;-75
2022/05/02 03:59:00;;;;;;;46.80;19.25;;;;;;;8.02;49.17;100022.02;1722511;83;21089;-76
2022/05/02 04:01:26;;;;;;;21.93;11.45;;;;;;;8.08;48.45;100016.66;1722964;82;21067;-74
2022/05/02 04:03:54;;;;;;;19.07;7.85;;;;;;;8.16;48.05;100011.31;1722823;82;21158;-75
2022/05/02 04:06:20;;;;;;;11.03;4.80;;;;;;;8.26;48.11;100012.88;1732489;81;20983;-75
2022/05/02 04:08:47;;;;;;;6.17;3.35;;;;;;;8.37;48.33;100010.05;1735989;82;21124;-75
2022/05/02 04:11:14;;;;;;;6.30;3.30;;;;;;;8.48;47.91;100011.23;1736053;82;21141;-75
2022/05/02 04:13:40;;;;;;;4.92;3.02;;;;;;;8.59;47.89;100018.46;1736113;82;21094;-75
2022/05/02 04:16:06;;;;;;;5.90;2.90;;;;;;;8.71;47.70;100014.74;1735948;82;21058;-74
2022/05/02 04:18:33;;;;;;;5.62;3.02;;;;;;;8.82;47.15;100018.00;1736130;82;21110;-76
2022/05/02 04:21:00;;;;;;;3.95;2.92;;;;;;;8.93;46.56;100017.81;1735787;82;21235;-76
2022/05/02 04:23:26;;;;;;;5.25;3.17;;;;;;;9.03;46.56;100018.04;1736006;82;21058;-76
2022/05/02 04:25:53;;;;;;;7.53;3.47;;;;;;;9.14;46.58;100017.80;1736008;82;21066;-75
2022/05/02 04:28:19;;;;;;;7.97;3.42;;;;;;;9.24;46.14;100020.66;1735958;82;21059;-76
2022/05/02 04:30:45;;;;;;;5.28;3.10;;;;;;;9.34;46.10;100021.33;1735996;82;21121;-76
2022/05/02 04:33:12;;;;;;;2.52;2.30;;;;;;;9.44;45.76;100016.75;1735913;82;21601;-76
2022/05/02 04:35:39;;;;;;;4.17;2.87;;;;;;;9.53;45.65;100017.88;1735984;82;21054;-76
2022/05/02 04:38:06;;;;;;;2.72;2.35;;;;;;;9.64;45.73;100013.22;1736028;82;21134;-76
2022/05/02 04:40:33;;;;;;;7.30;2.80;;;;;;;9.76;45.29;100016.47;1735495;82;20987;-75
2022/05/02 04:43:00;;;;;;;3.20;2.90;;;;;;;9.84;44.83;100017.16;1756906;81;21136;-75
2022/05/02 04:45:26;;;;;;;3.47;2.33;;;;;;;9.96;44.97;100017.31;1756905;81;21124;-75
2022/05/02 04:47:53;;;;;;;9.20;2.70;;;;;;;10.08;44.37;100011.75;1725736;83;21004;-76
2022/05/02 04:50:20;;;;;;;2.75;2.25;;;;;;;10.20;43.84;100013.21;1757049;81;21057;-75
2022/05/02 04:52:47;;;;;;;6.42;2.50;;;;;;;10.32;42.76;100012.95;1756823;81;21022;-74
2022/05/02 04:55:14;;;;;;;4.58;2.55;;;;;;;10.44;42.87;100006.52;1725740;82;21074;-75
2022/05/02 04:57:42;;;;;;;2.60;2.40;;;;;;;10.56;42.60;100013.22;1756992;81;21190;-74
2022/05/02 05:00:10;;;;;;;3.45;1.92;;;;;;;10.67;41.60;100003.24;1756906;81;21057;-74
2022/05/02 05:02:37;;;;;;;4.42;2.17;;;;;;;10.77;42.36;100005.17;1725481;83;21573;-74
2022/05/02 05:05:04;;;;;;;5.00;2.33;;;;;;;10.87;41.81;100000.06;1675861;83;21468;-74
2022/05/02 05:07:31;;;;;;;5.92;2.12;;;;;;;10.99;42.43;100006.75;1725307;83;20988;-74
2022/05/02 05:09:58;;;;;;;10.98;2.05;;;;;;;11.12;41.13;100009.91;1725488;83;21117;-74
2022/05/02 05:12:48;;;;;;;3.47;2.00;;;;;;;11.22;41.21;100007.88;1756694;81;21039;-76
2022/05/02 05:18:46;;;;;;;3.25;2.08;;;;;;;11.40;41.37;100007.75;1725651;83;21055;-75
2022/05/02 05:21:33;;;;;;;5.62;2.15;;;;;;;11.53;40.80;100013.95;1756955;81;21113;-75
2022/05/02 05:24:40;;;;;;;7.08;1.98;;;;;;;11.64;39.79;100008.80;1756889;81;21689;-75
2022/05/02 05:27:36;;;;;;;3.35;2.22;;;;;;;11.74;40.49;100015.50;1755877;81;21089;-76
2022/05/02 05:30:09;;;;;;;5.87;1.90;;;;;;;11.88;39.89;100011.11;1756629;81;21170;-75
2022/05/02 05:33:02;;;;;;;3.15;2.08;;;;;;;11.99;40.29;100005.53;1725523;82;21055;-75
2022/05/02 05:35:44;;;;;;;2.65;2.27;;;;;;;12.11;39.40;100005.12;1756678;81;21003;-75
2022/05/02 05:38:18;;;;;;;8.40;2.30;;;;;;;12.20;38.86;100003.95;1756799;81;21108;-75
2022/05/02 05:40:47;;;;;;;3.83;2.10;;;;;;;12.28;39.40;100002.38;1705132;81;21227;-75
2022/05/02 05:43:48;;;;;;;4.50;2.22;;;;;;;12.35;38.84;99999.94;1725331;83;21138;-74
2022/05/02 05:46:23;;;;;;;3.67;2.30;;;;;;;12.43;38.95;100003.17;1756580;81;21612;-74
2022/05/02 05:49:10;;;;;;;4.58;2.75;;;;;;;12.52;38.68;100001.52;1730245;81;21027;-74
2022/05/02 05:51:48;;;;;;;4.67;2.40;;;;;;;12.61;39.03;100001.21;1639159;82;22033;-75
2022/05/02 05:54:52;;;;;;;3.20;2.90;;;;;;;12.72;38.64;99993.37;1746222;81;21136;-75
2022/05/02 05:57:44;;;;;;;22.45;11.20;;;;;;;12.81;37.84;99998.34;1754423;81;21031;-74
2022/05/02 06:00:13;;;;;;;5.58;3.25;;;;;;;12.90;38.16;100001.95;1735224;81;21192;-74
2022/05/02 06:03:20;;;;;;;4.20;3.00;;;;;;;12.97;37.79;99999.47;1752558;81;21049;-75
2022/05/02 06:05:47;;;;;;;2.77;2.27;;;;;;;13.07;38.05;99996.51;1751785;81;21849;-75
2022/05/02 06:08:20;;;;;;;9.43;4.83;;;;;;;13.22;37.92;100002.53;1752391;81;23087;-75
2022/05/02 06:10:48;;;;;;;5.55;3.30;;;;;;;13.34;37.91;100002.56;1752786;81;21699;-74
2022/05/02 06:13:15;;;;;;;2.42;2.22;;;;;;;13.46;36.92;100001.23;1725397;81;21457;-74
2022/05/02 06:18:37;;;;;;;3.02;2.30;;;;;;;13.60;36.75;100001.56;1752253;81;21481;-75
2022/05/02 06:21:05;;;;;;;3.08;2.70;;;;;;;13.68;36.20;99996.80;1752580;81;21057;-75
2022/05/02 06:23:43;;;;;;;3.40;2.20;;;;;;;13.74;36.77;99997.89;1752654;81;21037;-74
2022/05/02 06:26:10;;;;;;;3.60;2.05;;;;;;;13.86;36.81;100002.30;1752779;81;21057;-74
2022/05/02 06:28:44;;;;;;;3.25;2.33;;;;;;;13.98;35.83;99997.82;1753088;81;21549;-75
2022/05/02 06:31:18;;;;;;;3.27;1.93;;;;;;;14.09;36.00;99995.60;1752993;81;21139;-75
2022/05/02 06:33:48;;;;;;;2.15;1.80;;;;;;;14.17;35.09;100001.03;1752977;81;20995;-75
2022/05/02 06:36:35;;;;;;;3.50;1.90;;;;;;;14.20;34.98;99992.49;1726180;81;21581;-75
2022/05/02 06:39:27;;;;;;;18.75;8.45;;;;;;;14.28;35.13;99994.83;1752949;81;21156;-75
2022/05/02 06:42:24;;;;;;;13.58;4.78;;;;;;;14.34;34.70;99987.97;1752775;81;21026;-74
2022/05/02 06:45:18;;;;;;;14.58;5.65;;;;;;;14.43;35.29;99992.85;1752483;81;21869;-75
2022/05/02 06:47:54;;;;;;;13.85;7.28;;;;;;;14.58;33.90;99990.48;1752991;81;21061;-75
2022/05/02 06:50:24;;;;;;;4.85;3.02;;;;;;;14.66;33.78;99988.39;1758788;80;21070;-74
2022/05/02 06:53:05;;;;;;;6.20;2.40;;;;;;;14.76;34.13;99979.55;1725528;83;21066;-75
2022/05/02 06:55:40;;;;;;;4.35;1.80;;;;;;;14.88;33.68;99982.11;1726033;83;21085;-74
2022/05/02 06:58:19;;;;;;;2.45;1.65;;;;;;;15.00;33.79;99980.26;1694986;82;21221;-75
2022/05/02 07:01:16;;;;;;;6.92;2.20;;;;;;;15.11;33.61;99977.95;1725150;82;21035;-75
2022/05/02 07:04:23;;;;;;;1.47;1.17;;;;;;;15.21;33.07;99981.92;1725825;83;21082;-75
2022/05/02 07:07:11;;;;;;;2.27;1.67;;;;;;;15.28;33.40;99977.64;1722336;82;21102;-75
2022/05/02 07:09:53;;;;;;;4.90;1.47;;;;;;;15.38;32.54;99974.95;1716404;83;21115;-75
2022/05/02 07:12:23;;;;;;;2.77;1.40;;;;;;;15.48;32.44;99978.03;1754578;81;21596;-76
2022/05/02 07:15:10;;;;;;;3.50;1.77;;;;;;;15.54;32.29;99975.10;1754779;81;21589;-75
2022/05/02 07:17:47;;;;;;;1.62;1.20;;;;;;;15.64;31.78;99977.70;1716294;82;21154;-75
2022/05/02 07:20:55;;;;;;;2.08;1.30;;;;;;;15.69;31.93;99974.84;1754225;81;21149;-75
2022/05/02 07:24:16;;;;;;;4.70;1.70;;;;;;;15.74;32.24;99974.14;1754842;81;21014;-76
2022/05/02 07:26:48;;;;;;;4.20;1.67;;;;;;;15.86;30.90;99969.58;1716382;83;21182;-76
2022/05/02 07:29:15;;;;;;;4.53;2.20;;;;;;;15.95;30.59;99970.91;1755104;81;21034;-79
2022/05/02 07:31:41;;;;;;;6.42;3.00;;;;;;;16.02;30.42;99969.70;1755020;81;21588;-76
2022/05/02 07:34:09;;;;;;;2.12;1.62;;;;;;;16.06;29.85;99970.40;1716333;83;21103;-74
2022/05/02 07:36:35;;;;;;;2.55;1.00;;;;;;;16.08;31.20;99965.87;1706341;81;21734;-75
2022/05/02 07:39:04;;;;;;;4.12;1.25;;;;;;;16.12;30.29;99965.64;1754776;81;21565;-74
2022/05/02 07:41:30;;;;;;;4.17;1.65;;;;;;;16.17;30.62;99966.72;1716823;83;21555;-74
2022/05/02 07:44:06;;;;;;;4.50;1.82;;;;;;;16.21;30.54;99964.80;1754775;81;21568;-75
2022/05/02 07:46:44;;;;;;;2.17;1.95;;;;;;;16.23;31.34;99963.76;1754695;81;21113;-74
2022/05/02 07:49:14;;;;;;;8.58;2.90;;;;;;;16.30;30.28;99969.14;1754930;81;21093;-75
2022/05/02 07:51:51;;;;;;;3.62;2.02;;;;;;;16.37;29.42;99964.85;1755047;81;21446;-74
2022/05/02 07:54:25;;;;;;;14.60;5.70;;;;;;;16.38;29.54;99959.94;1716430;83;21017;-75
2022/05/02 07:56:54;;;;;;;4.53;1.60;;;;;;;16.42;30.83;99961.02;1703140;83;21090;-75
2022/05/02 07:59:23;;;;;;;6.65;1.52;;;;;;;16.51;29.71;99955.72;1740087;81;22288;-75
2022/05/02 08:01:50;;;;;;;15.45;6.83;;;;;;;16.54;30.79;99954.20;1712478;83;21007;-74
2022/05/02 08:04:16;;;;;;;14.00;3.87;;;;;;;16.62;30.02;99958.64;1708499;84;21177;-76
2022/05/02 08:06:59;;;;;;;5.50;1.57;;;;;;;16.74;29.79;99961.60;1709111;83;21105;-75
2022/05/02 08:10:03;;;;;;;4.28;1.32;;;;;;;16.83;29.46;99955.81;1714840;83;21074;-75
2022/05/02 08:12:39;;;;;;;8.65;1.65;;;;;;;16.88;28.78;99953.80;1714899;83;21117;-76
2022/05/02 08:15:26;;;;;;;2.25;1.70;;;;;;;16.84;29.03;99953.52;1714803;83;21058;-76
2022/05/02 08:18:23;;;;;;;7.37;1.37;;;;;;;16.88;29.77;99953.80;1714669;83;21769;-75
2022/05/02 08:21:02;;;;;;;2.85;1.45;;;;;;;17.02;29.48;99956.55;1714332;83;21066;-75
2022/05/02 08:27:15;;;;;;;6.53;1.47;;;;;;;17.22;28.88;99950.14;1707078;83;21568;-76
2022/05/02 08:30:05;;;;;;;2.98;1.35;;;;;;;17.12;29.00;99942.77;1715017;83;21105;-75
2022/05/02 08:32:52;;;;;;;6.08;2.00;;;;;;;17.11;29.42;99938.39;1714505;83;21137;-75
2022/05/02 08:35:46;;;;;;;3.05;1.60;;;;;;;17.23;28.84;99943.02;1715121;83;20999;-75
2022/05/02 08:38:45;;;;;;;1.57;1.47;;;;;;;17.31;28.00;99926.16;1714749;83;22205;-75
2022/05/02 08:41:33;;;;;;;4.15;1.42;;;;;;;17.36;28.66;99933.41;1714930;83;21010;-73
2022/05/02 08:44:33;;;;;;;3.62;2.40;;;;;;;17.31;27.85;99934.14;1714753;83;21522;-75
2022/05/02 08:47:41;;;;;;;1.75;1.40;;;;;;;17.15;28.40;99929.31;1715095;83;21085;-75
2022/05/02 08:51:00;;;;;;;5.03;1.50;;;;;;;17.03;28.17;99923.72;1714667;83;21517;-75
2022/05/02 08:53:44;;;;;;;4.75;1.90;;;;;;;17.05;28.90;99918.33;1714651;83;21011;-75
2022/05/02 08:56:58;;;;;;;2.47;1.35;;;;;;;17.18;28.97;99920.69;1695371;83;21062;-74
2022/05/02 08:59:50;;;;;;;2.58;1.90;;;;;;;17.27;28.04;99917.98;1753093;80;22069;-74
2022/05/02 09:02:58;;;;;;;5.28;1.87;;;;;;;17.28;29.18;99909.05;1787391;80;21575;-75
2022/05/02 09:05:58;;;;;;;10.93;5.45;;;;;;;17.32;28.11;99915.92;1787822;80;21030;-74
2022/05/02 09:08:42;;;;;;;2.98;2.05;;;;;;;17.22;28.44;99904.09;1788475;80;21085;-74
2022/05/02 09:11:52;;;;;;;1.62;1.52;;;;;;;17.24;28.84;99907.52;1748598;80;21050;-74
2022/05/02 09:14:39;;;;;;;2.52;1.60;;;;;;;17.34;27.08;99906.53;1788276;80;21045;-75
2022/05/02 09:17:20;;;;;;;2.10;1.90;;;;;;;17.50;27.34;99891.42;1788618;80;21677;-74
2022/05/02 09:20:31;;;;;;;6.80;1.50;;;;;;;17.62;27.88;99895.18;1788463;80;21045;-75
2022/05/02 09:23:25;;;;;;;2.65;1.55;;;;;;;17.68;26.70;99881.50;1788742;80;21667;-76
2022/05/02 09:26:26;;;;;;;2.45;1.47;;;;;;;17.78;28.44;99881.34;1787730;80;22228;-74
2022/05/02 09:29:31;;;;;;;4.85;1.95;;;;;;;17.93;27.61;99878.77;1788500;80;21053;-75
2022/05/02 09:32:10;;;;;;;2.90;1.67;;;;;;;18.11;26.51;99875.00;1788779;80;21125;-75
2022/05/02 09:34:57;;;;;;;4.12;1.40;;;;;;;18.14;27.34;99872.61;1787645;80;20967;-75
2022/05/02 09:37:41;;;;;;;2.42;1.60;;;;;;;18.10;26.89;99870.61;1788472;80;21085;-74
2022/05/02 09:40:14;;;;;;;3.90;1.47;;;;;;;18.09;26.76;99874.24;1789009;80;21510;-74
2022/05/02 09:43:25;;;;;;;3.70;1.57;;;;;;;18.11;26.50;99864.34;1789003;80;21513;-74
2022/05/02 09:52:12;;;;;;;1.98;1.40;;;;;;;17.97;27.39;99848.34;1770264;80;21104;-74
2022/05/02 09:58:08;;;;;;;5.55;1.65;;;;;;;18.23;27.15;99852.09;1751415;81;21038;-74
2022/05/02 10:01:06;;;;;;;3.92;1.55;;;;;;;18.35;26.72;99850.48;1751158;81;21108;-75
2022/05/02 10:03:50;;;;;;;2.20;1.80;;;;;;;18.24;26.30;99848.49;1748986;81;21017;-75
2022/05/02 10:06:28;;;;;;;5.47;1.70;;;;;;;18.26;26.59;99851.06;1751807;81;21022;-75
2022/05/02 10:09:18;;;;;;;6.67;1.70;;;;;;;18.35;27.32;99839.83;1751201;81;21080;-74
2022/05/02 10:12:18;;;;;;;4.28;1.57;;;;;;;18.46;25.73;99846.69;1751001;81;21038;-74
2022/05/02 10:15:11;;;;;;;2.08;1.40;;;;;;;18.40;25.91;99835.07;1740404;81;22225;-75
2022/05/02 10:18:08;;;;;;;4.10;1.87;;;;;;;18.34;26.26;99828.78;1751059;81;21090;-74
2022/05/02 10:21:13;;;;;;;4.22;1.60;;;;;;;18.33;25.87;99829.75;1751075;81;20986;-74
2022/05/02 10:24:11;;;;;;;4.00;1.70;;;;;;;18.29;25.88;99829.55;1750991;81;21616;-74
2022/05/02 10:26:56;;;;;;;2.70;1.72;;;;;;;18.29;25.73;99825.09;1750666;81;21030;-75
2022/05/02 10:29:38;;;;;;;1.55;1.30;;;;;;;18.32;26.47;99830.20;1709966;81;21107;-75
2022/05/02 10:32:27;;;;;;;8.00;1.50;;;;;;;18.33;25.50;99825.27;1751027;81;21022;-76
2022/05/02 10:34:53;;;;;;;3.58;1.40;;;;;;;18.25;25.61;99823.55;1750994;81;21671;-75
2022/05/02 10:37:24;;;;;;;1.70;1.60;;;;;;;18.24;26.93;99818.31;1751107;81;21086;-75
2022/05/02 10:39:51;;;;;;;2.65;1.47;;;;;;;18.34;26.60;99819.45;1751251;81;21053;-75
2022/05/02 10:42:19;;;;;;;5.83;1.72;;;;;;;18.53;26.33;99814.70;1750892;81;21131;-76
2022/05/02 10:45:05;;;;;;;1.90;1.57;;;;;;;18.79;25.41;99810.85;1751307;81;21482;-75
2022/05/02 10:47:54;;;;;;;1.85;1.57;;;;;;;19.01;25.34;99809.02;1750964;81;21079;-74
2022/05/02 10:50:34;;;;;;;2.50;1.10;;;;;;;19.10;25.10;99807.10;1738358;81;21069;-74
2022/05/02 10:53:40;;;;;;;3.52;1.35;;;;;;;18.93;25.38;99802.87;1751123;81;21066;-75
2022/05/02 10:56:35;;;;;;;4.28;1.52;;;;;;;18.82;26.25;99794.67;1751411;81;21540;-75
2022/05/02 10:59:05;;;;;;;5.58;1.32;;;;;;;18.99;26.69;99792.76;1750774;81;21177;-75
2022/05/02 11:02:06;;;;;;;4.62;1.37;;;;;;;19.33;26.97;99784.70;1751170;81;21060;-75
2022/05/02 11:05:05;;;;;;;4.03;1.30;;;;;;;19.65;26.21;99777.22;1750467;81;21481;-74
2022/05/02 11:08:01;;;;;;;1.82;1.52;;;;;;;19.92;25.61;99768.30;1773887;80;21014;-75
2022/05/02 11:10:32;;;;;;;3.83;1.40;;;;;;;20.06;25.23;99770.50;1787362;80;21148;-75
2022/05/02 11:13:28;;;;;;;13.83;8.40;;;;;;;20.12;23.16;99771.38;1788143;80;21520;-76
2022/05/02 11:16:27;;;;;;;6.75;3.20;;;;;;;19.93;24.01;99757.98;1760098;80;20995;-75
2022/05/02 11:22:28;;;;;;;9.75;3.33;;;;;;;19.91;24.40;99763.06;1788086;80;21011;-75
2022/05/02 11:25:19;;;;;;;13.38;2.47;;;;;;;20.04;25.51;99763.43;1787689;80;22267;-75
2022/05/02 11:28:19;;;;;;;3.92;1.37;;;;;;;20.18;23.57;99760.27;1787969;80;21062;-75
2022/05/02 11:30:53;;;;;;;1.80;1.40;;;;;;;20.18;24.10;99751.77;1787807;80;21144;-75
2022/05/02 11:33:40;;;;;;;1.85;1.67;;;;;;;20.25;24.26;99754.86;1787381;80;21131;-75
2022/05/02 11:36:10;;;;;;;6.53;1.50;;;;;;;20.27;24.23;99745.40;1788083;80;21587;-75
2022/05/02 11:38:54;;;;;;;7.72;3.92;;;;;;;20.25;23.91;99752.19;1788199;80;21090;-74
2022/05/02 11:41:21;;;;;;;8.15;2.17;;;;;;;20.20;23.77;99740.97;1787742;80;22102;-73
2022/05/02 11:43:49;;;;;;;3.20;2.33;;;;;;;19.96;24.30;99745.75;1788347;80;22340;-73
2022/05/02 11:46:23;;;;;;;16.57;6.80;;;;;;;19.59;24.31;99741.59;1787832;80;21042;-74
2022/05/02 11:49:12;;;;;;;;;;;;;;;19.26;24.45;99730.91;1790783;80;21085;-75
2022/05/02 11:51:50;;;;;;;2.83;1.70;;;;;;;19.09;24.90;99735.19;1788271;80;21164;-74
2022/05/02 11:54:39;;;;;;;4.62;1.72;;;;;;;19.14;26.04;99723.73;1788467;80;21034;-75
2022/05/02 11:57:22;;;;;;;4.03;1.87;;;;;;;19.38;26.25;99734.55;1729533;81;21055;-75
2022/05/02 12:00:07;;;;;;;1.67;1.30;;;;;;;19.65;25.00;99722.50;1725754;83;21639;-76
2022/05/02 12:02:48;;;;;;;2.90;1.12;;;;;;;19.79;24.94;99722.05;1725706;83;21051;-75
2022/05/02 12:05:39;;;;;;;3.90;1.67;;;;;;;19.83;24.80;99715.52;1725804;83;21120;-75
2022/05/02 12:08:09;;;;;;;2.00;1.22;;;;;;;19.88;24.94;99713.38;1715176;82;21019;-76
2022/05/02 12:10:42;;;;;;;6.08;1.60;;;;;;;19.89;24.83;99705.77;1725656;83;21106;-75
2022/05/02 12:13:15;;;;;;;6.80;1.30;;;;;;;19.86;24.37;99693.95;1725683;83;21078;-75
2022/05/02 12:16:12;;;;;;;7.60;2.10;;;;;;;19.83;24.46;99699.02;1725710;82;21039;-75
2022/05/02 12:18:43;;;;;;;;;;;;;;;19.76;24.26;99695.56;1727789;83;21160;-75
2022/05/02 12:21:39;;;;;;;8.80;2.40;;;;;;;19.44;24.81;99704.80;1725880;83;20194;-75
2022/05/02 12:24:07;;;;;;;7.35;2.47;;;;;;;19.25;24.70;99698.53;1725761;83;21010;-75
2022/05/02 12:26:35;;;;;;;3.17;2.17;;;;;;;19.06;24.98;99695.39;1725678;83;21024;-75
2022/05/02 12:29:06;;;;;;;6.60;2.12;;;;;;;18.91;25.02;99704.80;1709580;83;21733;-76
2022/05/02 12:31:36;;;;;;;3.05;2.42;;;;;;;18.77;25.35;99692.81;1723541;82;21102;-74
2022/05/02 12:34:12;;;;;;;11.60;3.05;;;;;;;18.72;25.24;99686.94;1725531;83;21145;-75
2022/05/02 12:36:47;;;;;;;2.20;1.70;;;;;;;18.63;25.02;99691.55;1725428;83;21550;-75
2022/05/02 12:39:26;;;;;;;2.25;1.47;;;;;;;18.57;25.62;99688.30;1725360;83;21020;-75
2022/05/02 12:42:15;;;;;;;1.98;1.50;;;;;;;18.63;24.68;99687.55;1725525;83;21577;-75
2022/05/02 12:44:48;;;;;;;5.37;1.30;;;;;;;18.66;25.33;99679.33;1725918;83;21440;-76
2022/05/02 12:47:20;;;;;;;1.67;1.30;;;;;;;18.83;25.82;99675.13;1725243;82;20999;-75